createdAt,value
2018-03-27T00:00:40.466Z,28.95
2018-03-27T00:03:06.907Z,28.35
2018-03-27T00:05:33.333Z,28.65
2018-03-27T00:07:59.726Z,27.65
2018-03-27T00:10:26.124Z,27.15
2018-03-27T00:12:52.504Z,28.90
2018-03-27T00:15:18.967Z,26.35
2018-03-27T00:17:45.359Z,27.80
2018-03-27T00:20:11.756Z,26.52
2018-03-27T00:22:38.165Z,28.00
2018-03-27T00:25:04.687Z,26.83
2018-03-27T00:27:49.383Z,26.48
2018-03-27T00:30:34.218Z,30.10
2018-03-27T00:33:19.058Z,29.00
2018-03-27T00:36:03.778Z,28.98
2018-03-27T00:38:48.463Z,25.55
2018-03-27T00:44:47.628Z,28.25
2018-03-27T00:47:14.088Z,26.90
2018-03-27T00:49:40.572Z,28.48
2018-03-27T00:52:06.968Z,26.73
2018-03-27T00:54:33.433Z,26.65
2018-03-27T00:56:59.808Z,26.02
2018-03-27T00:59:26.211Z,27.90
2018-03-27T01:01:52.660Z,26.75
2018-03-27T01:04:19.106Z,25.40
2018-03-27T01:06:45.555Z,23.33
2018-03-27T01:09:12.001Z,25.55
2018-03-27T01:11:39.194Z,25.35
2018-03-27T01:14:05.618Z,24.42
2018-03-27T01:16:32.023Z,26.45
2018-03-27T01:18:58.474Z,25.67
2018-03-27T01:21:24.904Z,25.25
2018-03-27T01:23:51.325Z,24.92
2018-03-27T01:26:18.491Z,25.62
2018-03-27T01:28:45.730Z,23.42
2018-03-27T01:31:12.161Z,23.52
2018-03-27T01:33:39.270Z,24.27
2018-03-27T01:36:05.711Z,21.73
2018-03-27T01:38:32.875Z,23.25
2018-03-27T01:40:59.998Z,23.55
2018-03-27T01:43:26.448Z,24.30
2018-03-27T01:45:53.619Z,20.75
2018-03-27T01:48:20.043Z,22.87
2018-03-27T01:50:46.444Z,21.48
2018-03-27T01:53:12.869Z,22.92
2018-03-27T01:55:39.347Z,20.73
2018-03-27T01:58:05.772Z,23.40
2018-03-27T02:00:32.165Z,21.98
2018-03-27T02:02:58.558Z,22.37
2018-03-27T02:05:24.927Z,25.80
2018-03-27T02:07:51.334Z,22.00
2018-03-27T02:10:17.710Z,24.00
2018-03-27T02:12:50.803Z,22.05
2018-03-27T02:15:24.027Z,21.00
2018-03-27T02:17:56.438Z,22.40
2018-03-27T02:20:28.950Z,23.38
2018-03-27T02:23:00.311Z,20.60
2018-03-27T02:25:26.714Z,22.83
2018-03-27T02:27:53.851Z,21.35
2018-03-27T02:30:20.243Z,22.80
2018-03-27T02:32:46.662Z,22.08
2018-03-27T02:35:13.164Z,21.75
2018-03-27T02:37:39.571Z,22.90
2018-03-27T02:40:06.058Z,23.35
2018-03-27T02:42:32.472Z,21.83
2018-03-27T02:44:58.858Z,20.88
2018-03-27T02:47:25.233Z,23.38
2018-03-27T02:49:51.641Z,22.65
2018-03-27T02:52:18.779Z,24.17
2018-03-27T02:54:45.209Z,22.00
2018-03-27T02:57:11.645Z,23.02
2018-03-27T02:59:38.188Z,22.08
2018-03-27T03:02:04.653Z,22.87
2018-03-27T03:04:31.140Z,21.40
2018-03-27T03:06:57.595Z,23.52
2018-03-27T03:09:24.821Z,22.58
2018-03-27T03:11:51.991Z,23.98
2018-03-27T03:14:18.421Z,24.15
2018-03-27T03:16:45.606Z,21.25
2018-03-27T03:19:12.018Z,23.23
2018-03-27T03:21:38.428Z,23.60
2018-03-27T03:24:05.546Z,24.08
2018-03-27T03:26:32.056Z,22.65
2018-03-27T03:28:58.426Z,24.70
2018-03-27T03:31:24.811Z,19.92
2018-03-27T03:33:51.200Z,23.75
2018-03-27T03:36:18.320Z,23.05
2018-03-27T03:38:44.738Z,23.00
2018-03-27T03:41:11.169Z,23.60
2018-03-27T03:43:37.661Z,22.77
2018-03-27T03:46:04.057Z,21.23
2018-03-27T03:48:30.469Z,23.05
2018-03-27T03:50:56.905Z,22.98
2018-03-27T03:53:23.342Z,20.73
2018-03-27T03:55:49.708Z,21.92
2018-03-27T03:58:16.802Z,24.23
2018-03-27T04:00:43.234Z,23.27
2018-03-27T04:03:09.589Z,22.55
2018-03-27T04:05:36.085Z,21.87
2018-03-27T04:08:02.495Z,22.83
2018-03-27T04:10:28.921Z,21.87
2018-03-27T04:12:55.315Z,22.23
2018-03-27T04:15:21.791Z,21.27
2018-03-27T04:17:48.261Z,23.38
2018-03-27T04:20:14.691Z,22.17
2018-03-27T04:22:41.090Z,24.40
2018-03-27T04:25:07.488Z,23.87
2018-03-27T04:27:34.697Z,21.92
2018-03-27T04:30:01.186Z,22.48
2018-03-27T04:32:27.569Z,20.90
2018-03-27T04:34:53.961Z,22.60
2018-03-27T04:37:20.346Z,24.15
2018-03-27T04:39:46.741Z,22.65
2018-03-27T04:42:13.911Z,22.33
2018-03-27T04:44:41.272Z,22.15
2018-03-27T04:47:07.641Z,21.83
2018-03-27T04:49:34.052Z,22.70
2018-03-27T04:52:01.299Z,21.50
2018-03-27T04:54:27.699Z,22.33
2018-03-27T04:56:54.177Z,20.85
2018-03-27T04:59:21.281Z,21.05
2018-03-27T05:01:47.686Z,23.15
2018-03-27T05:04:14.829Z,21.92
2018-03-27T05:06:41.255Z,23.65
2018-03-27T05:09:07.726Z,22.20
2018-03-27T05:11:34.131Z,21.55
2018-03-27T05:14:01.547Z,23.25
2018-03-27T05:16:28.656Z,23.33
2018-03-27T05:18:55.046Z,21.73
2018-03-27T05:21:22.165Z,22.73
2018-03-27T05:23:48.589Z,21.75
2018-03-27T05:26:15.011Z,21.73
2018-03-27T05:28:41.380Z,21.95
2018-03-27T05:31:07.879Z,22.45
2018-03-27T05:33:34.277Z,22.48
2018-03-27T05:36:00.700Z,20.65
2018-03-27T05:38:27.094Z,21.40
2018-03-27T05:40:53.511Z,23.60
2018-03-27T05:43:19.925Z,21.12
2018-03-27T05:45:46.422Z,25.08
2018-03-27T05:48:12.800Z,22.45
2018-03-27T05:50:39.203Z,21.00
2018-03-27T05:53:05.640Z,22.27
2018-03-27T05:55:32.056Z,23.10
2018-03-27T05:57:58.450Z,24.08
2018-03-27T06:00:25.639Z,21.00
2018-03-27T06:02:52.023Z,22.83
2018-03-27T06:05:18.433Z,21.30
2018-03-27T06:07:44.828Z,23.08
2018-03-27T06:10:11.238Z,21.10
2018-03-27T06:12:37.642Z,22.37
2018-03-27T06:15:04.074Z,24.45
2018-03-27T06:17:30.494Z,22.87
2018-03-27T06:19:56.926Z,21.65
2018-03-27T06:22:23.334Z,22.48
2018-03-27T06:24:49.723Z,20.55
2018-03-27T06:27:16.196Z,22.45
2018-03-27T06:29:42.605Z,21.80
2018-03-27T06:32:09.807Z,22.23
2018-03-27T06:34:36.185Z,22.17
2018-03-27T06:37:02.612Z,23.67
2018-03-27T06:39:29.875Z,23.75
2018-03-27T06:41:56.296Z,21.75
2018-03-27T06:44:22.746Z,21.98
2018-03-27T06:46:49.152Z,21.15
2018-03-27T06:49:15.573Z,19.37
2018-03-27T06:51:42.713Z,21.67
2018-03-27T06:54:09.841Z,21.25
2018-03-27T06:56:36.267Z,22.15
2018-03-27T06:59:02.764Z,20.60
2018-03-27T07:01:29.923Z,20.52
2018-03-27T07:03:56.376Z,22.30
2018-03-27T07:06:22.858Z,20.80
2018-03-27T07:08:49.312Z,20.05
2018-03-27T07:11:15.725Z,22.35
2018-03-27T07:13:42.132Z,20.23
2018-03-27T07:16:09.460Z,23.20
2018-03-27T07:18:35.843Z,20.75
2018-03-27T07:21:02.240Z,21.12
2018-03-27T07:23:29.432Z,20.85
2018-03-27T07:25:55.786Z,20.70
2018-03-27T07:28:22.234Z,19.08
2018-03-27T07:30:48.625Z,20.50
2018-03-27T07:33:15.006Z,20.17
2018-03-27T07:35:41.407Z,19.98
2018-03-27T07:38:08.679Z,20.00
2018-03-27T07:40:35.135Z,19.95
2018-03-27T07:43:01.591Z,20.52
2018-03-27T07:45:28.053Z,17.80
2018-03-27T07:47:54.429Z,18.48
2018-03-27T07:50:21.547Z,21.58
2018-03-27T07:52:47.936Z,19.17
2018-03-27T07:55:14.309Z,20.77
2018-03-27T07:57:40.689Z,17.95
2018-03-27T08:00:07.072Z,19.85
2018-03-27T08:02:33.495Z,18.62
2018-03-27T08:04:59.906Z,18.42
2018-03-27T08:07:26.331Z,21.58
2018-03-27T08:09:52.705Z,18.73
2018-03-27T08:12:19.139Z,17.23
2018-03-27T08:14:45.539Z,15.88
2018-03-27T08:17:11.953Z,14.93
2018-03-27T08:19:38.342Z,16.08
2018-03-27T08:22:05.486Z,15.15
2018-03-27T08:24:31.890Z,16.12
2018-03-27T08:26:58.286Z,15.20
2018-03-27T08:29:24.710Z,15.02
2018-03-27T08:31:51.118Z,12.30
2018-03-27T08:34:18.257Z,10.23
2018-03-27T08:36:44.682Z,11.30
2018-03-27T08:39:11.361Z,11.00
2018-03-27T08:41:37.806Z,11.98
2018-03-27T08:44:04.226Z,10.88
2018-03-27T08:46:30.669Z,11.38
2018-03-27T08:48:57.135Z,9.95
2018-03-27T08:51:23.512Z,11.05
2018-03-27T08:53:49.968Z,13.30
2018-03-27T08:56:16.391Z,11.43
2018-03-27T08:58:42.820Z,12.32
2018-03-27T09:01:09.433Z,14.07
2018-03-27T09:03:35.838Z,14.93
2018-03-27T09:06:02.306Z,11.45
2018-03-27T09:08:28.762Z,13.68
2018-03-27T09:10:55.235Z,12.37
2018-03-27T09:13:21.639Z,10.27
2018-03-27T09:15:48.790Z,11.07
2018-03-27T09:18:15.226Z,12.15
2018-03-27T09:20:41.677Z,11.02
2018-03-27T09:23:08.125Z,11.60
2018-03-27T09:25:35.237Z,11.30
2018-03-27T09:28:01.681Z,10.80
2018-03-27T09:30:28.066Z,12.57
2018-03-27T09:32:54.474Z,9.45
2018-03-27T09:35:21.643Z,8.70
2018-03-27T09:37:48.065Z,7.03
2018-03-27T09:40:14.488Z,8.45
2018-03-27T09:42:41.600Z,9.50
2018-03-27T09:45:08.017Z,9.38
2018-03-27T09:47:34.417Z,8.88
2018-03-27T09:50:00.834Z,9.23
2018-03-27T09:52:27.322Z,9.18
2018-03-27T09:54:53.720Z,6.70
2018-03-27T09:57:20.272Z,7.62
2018-03-27T09:59:46.678Z,7.85
2018-03-27T10:02:13.073Z,6.95
2018-03-27T10:04:40.245Z,7.85
2018-03-27T10:07:06.660Z,7.43
2018-03-27T10:09:33.825Z,7.28
2018-03-27T10:12:00.202Z,6.25
2018-03-27T10:14:26.599Z,5.65
2018-03-27T10:16:53.040Z,6.07
2018-03-27T10:19:19.441Z,7.10
2018-03-27T10:21:46.667Z,7.72
2018-03-27T10:24:13.071Z,7.32
2018-03-27T10:26:39.475Z,7.55
2018-03-27T10:29:05.850Z,8.70
2018-03-27T10:31:32.278Z,8.25
2018-03-27T10:33:58.716Z,9.57
2018-03-27T10:36:25.158Z,8.00
2018-03-27T10:38:52.387Z,7.93
2018-03-27T10:41:18.801Z,8.13
2018-03-27T10:43:45.262Z,8.75
2018-03-27T10:46:11.677Z,7.87
2018-03-27T10:48:38.110Z,7.80
2018-03-27T10:51:04.484Z,8.10
2018-03-27T10:53:30.939Z,8.77
2018-03-27T10:55:57.374Z,9.20
2018-03-27T10:58:23.784Z,10.55
2018-03-27T11:00:50.178Z,10.13
2018-03-27T11:03:16.594Z,9.82
2018-03-27T11:05:42.963Z,9.45
2018-03-27T11:08:10.063Z,10.43
2018-03-27T11:10:36.471Z,9.32
2018-03-27T11:13:02.912Z,8.88
2018-03-27T11:15:29.629Z,9.27
2018-03-27T11:17:56.008Z,10.45
2018-03-27T11:20:22.413Z,9.55
2018-03-27T11:22:48.847Z,9.40
2018-03-27T11:25:15.427Z,9.85
2018-03-27T11:27:42.576Z,9.98
2018-03-27T11:30:08.954Z,10.02
2018-03-27T11:32:35.371Z,10.27
2018-03-27T11:35:01.775Z,10.48
2018-03-27T11:37:28.905Z,10.23
2018-03-27T11:39:55.369Z,8.68
2018-03-27T11:42:21.825Z,9.98
2018-03-27T11:44:48.194Z,10.82
2018-03-27T11:47:15.475Z,9.27
2018-03-27T11:49:41.881Z,9.13
2018-03-27T11:52:08.308Z,8.38
2018-03-27T11:54:34.756Z,10.65
2018-03-27T11:57:01.361Z,11.23
2018-03-27T11:59:27.766Z,9.32
2018-03-27T12:01:54.146Z,8.93
2018-03-27T12:04:21.383Z,8.50
2018-03-27T12:06:48.529Z,8.95
2018-03-27T12:09:14.969Z,7.25
2018-03-27T12:11:41.362Z,6.80
2018-03-27T12:14:07.786Z,8.23
2018-03-27T12:16:34.226Z,9.05
2018-03-27T12:19:00.615Z,8.27
2018-03-27T12:21:27.756Z,7.00
2018-03-27T12:23:54.983Z,7.80
2018-03-27T12:26:21.358Z,8.02
2018-03-27T12:28:47.732Z,8.82
2018-03-27T12:31:14.906Z,8.52
2018-03-27T12:33:41.306Z,7.95
2018-03-27T12:36:07.806Z,7.22
2018-03-27T12:38:34.295Z,7.45
2018-03-27T12:41:00.680Z,7.10
2018-03-27T12:43:27.066Z,5.75
2018-03-27T12:45:53.494Z,6.78
2018-03-27T12:48:19.898Z,6.72
2018-03-27T12:50:46.309Z,6.60
2018-03-27T12:53:12.815Z,7.30
2018-03-27T12:55:39.187Z,7.18
2018-03-27T12:58:05.607Z,6.70
2018-03-27T13:00:31.989Z,7.30
2018-03-27T13:02:59.154Z,7.43
2018-03-27T13:05:26.260Z,5.93
2018-03-27T13:07:52.670Z,6.45
2018-03-27T13:10:19.099Z,7.25
2018-03-27T13:12:45.593Z,6.03
2018-03-27T13:15:12.758Z,6.55
2018-03-27T13:17:39.211Z,7.68
2018-03-27T13:20:06.386Z,7.65
2018-03-27T13:22:32.786Z,7.53
2018-03-27T13:24:59.222Z,7.45
2018-03-27T13:27:25.637Z,6.22
2018-03-27T13:29:52.038Z,7.82
2018-03-27T13:32:18.437Z,6.97
2018-03-27T13:34:44.850Z,7.65
2018-03-27T13:37:11.298Z,8.40
2018-03-27T13:39:37.740Z,7.15
2018-03-27T13:42:04.197Z,7.53
2018-03-27T13:44:30.735Z,7.70
2018-03-27T13:46:57.899Z,7.40
2018-03-27T13:49:24.341Z,6.50
2018-03-27T13:51:50.785Z,7.07
2018-03-27T13:54:17.198Z,7.07
2018-03-27T13:56:43.615Z,7.07
2018-03-27T13:59:10.816Z,6.75
2018-03-27T14:01:37.998Z,6.87
2018-03-27T14:04:04.421Z,8.32
2018-03-27T14:06:30.814Z,6.75
2018-03-27T14:08:57.313Z,6.78
2018-03-27T14:11:24.491Z,6.85
2018-03-27T14:13:50.914Z,6.62
2018-03-27T14:16:17.335Z,7.12
2018-03-27T14:18:43.770Z,5.95
2018-03-27T14:21:10.216Z,6.62
2018-03-27T14:23:36.912Z,7.72
2018-03-27T14:26:03.355Z,7.22
2018-03-27T14:28:30.517Z,6.85
2018-03-27T14:30:56.959Z,6.20
2018-03-27T14:33:23.392Z,7.57
2018-03-27T14:35:49.807Z,7.12
2018-03-27T14:38:17.044Z,6.53
2018-03-27T14:40:43.531Z,6.65
2018-03-27T14:43:10.062Z,7.10
2018-03-27T14:45:36.526Z,7.07
2018-03-27T14:48:02.945Z,7.75
2018-03-27T14:50:29.426Z,6.97
2018-03-27T14:52:55.867Z,6.62
2018-03-27T14:55:22.318Z,7.30
2018-03-27T14:57:48.770Z,6.00
2018-03-27T15:00:15.919Z,6.80
2018-03-27T15:02:42.370Z,7.10
2018-03-27T15:05:09.526Z,7.72
2018-03-27T15:07:35.975Z,6.35
2018-03-27T15:10:02.480Z,6.75
2018-03-27T15:12:28.835Z,7.07
2018-03-27T15:14:56.027Z,6.47
2018-03-27T15:17:22.522Z,7.62
2018-03-27T15:19:49.670Z,6.40
2018-03-27T15:22:16.859Z,8.02
2018-03-27T15:24:44.047Z,7.55
2018-03-27T15:27:10.427Z,6.68
2018-03-27T15:29:36.881Z,6.90
2018-03-27T15:32:03.338Z,6.90
2018-03-27T15:34:30.522Z,7.45
2018-03-27T15:36:57.042Z,7.53
2018-03-27T15:39:24.212Z,6.62
2018-03-27T15:41:50.689Z,7.30
2018-03-27T15:44:17.052Z,6.80
2018-03-27T15:46:44.190Z,7.37
2018-03-27T15:49:11.353Z,6.57
2018-03-27T15:51:38.532Z,6.70
2018-03-27T15:54:04.954Z,8.43
2018-03-27T15:56:31.415Z,7.65
2018-03-27T15:58:57.823Z,7.53
2018-03-27T16:01:24.256Z,6.80
2018-03-27T16:03:50.646Z,8.25
2018-03-27T16:06:17.088Z,8.18
2018-03-27T16:08:44.318Z,7.60
2018-03-27T16:11:11.493Z,8.70
2018-03-27T16:13:38.677Z,7.87
2018-03-27T16:16:05.135Z,8.07
2018-03-27T16:18:31.568Z,7.90
2018-03-27T16:20:58.036Z,8.88
2018-03-27T16:23:24.472Z,7.20
2018-03-27T16:25:51.627Z,9.60
2018-03-27T16:28:18.047Z,8.57
2018-03-27T16:30:44.513Z,7.93
2018-03-27T16:33:10.999Z,8.48
2018-03-27T16:35:38.172Z,9.02
2018-03-27T16:38:04.607Z,8.65
2018-03-27T16:40:31.098Z,9.32
2018-03-27T16:42:57.519Z,7.87
2018-03-27T16:45:23.882Z,7.82
2018-03-27T16:47:51.232Z,8.80
2018-03-27T16:50:17.687Z,7.62
2018-03-27T16:52:44.067Z,7.65
2018-03-27T16:55:10.547Z,8.27
2018-03-27T16:57:37.660Z,8.38
2018-03-27T17:00:04.284Z,7.55
2018-03-27T17:02:30.687Z,7.37
2018-03-27T17:04:57.138Z,7.87
2018-03-27T17:07:23.562Z,7.82
2018-03-27T17:09:50.006Z,9.07
2018-03-27T17:12:16.470Z,7.80
2018-03-27T17:14:43.659Z,8.82
2018-03-27T17:17:10.162Z,8.05
2018-03-27T17:19:36.601Z,7.90
2018-03-27T17:22:03.077Z,7.25
2018-03-27T17:24:29.457Z,9.23
2018-03-27T17:26:55.883Z,7.35
2018-03-27T17:29:23.082Z,8.43
2018-03-27T17:31:49.528Z,8.13
2018-03-27T17:34:15.958Z,10.32
2018-03-27T17:36:42.367Z,8.75
2018-03-27T17:39:08.871Z,9.15
2018-03-27T17:41:35.507Z,10.70
2018-03-27T17:44:01.912Z,10.38
2018-03-27T17:46:28.346Z,9.27
2018-03-27T17:48:54.883Z,12.02
2018-03-27T17:51:22.098Z,10.43
2018-03-27T17:53:48.504Z,9.85
2018-03-27T17:56:14.975Z,10.48
2018-03-27T17:58:42.272Z,10.70
2018-03-27T18:01:08.732Z,9.02
2018-03-27T18:03:35.169Z,8.90
2018-03-27T18:06:01.684Z,8.90
2018-03-27T18:08:28.118Z,8.95
2018-03-27T18:10:54.519Z,9.68
2018-03-27T18:13:21.667Z,8.25
2018-03-27T18:15:48.823Z,10.68
2018-03-27T18:18:16.020Z,10.90
2018-03-27T18:20:42.468Z,11.02
2018-03-27T18:23:08.915Z,9.65
2018-03-27T18:25:35.334Z,10.25
2018-03-27T18:28:01.812Z,10.75
2018-03-27T18:30:28.286Z,8.90
2018-03-27T18:32:54.789Z,10.85
2018-03-27T18:35:21.256Z,9.07
2018-03-27T18:37:47.677Z,8.75
2018-03-27T18:40:14.162Z,10.98
2018-03-27T18:42:40.595Z,10.02
2018-03-27T18:45:07.263Z,9.55
2018-03-27T18:47:33.868Z,9.35
2018-03-27T18:50:00.487Z,10.20
2018-03-27T18:52:27.010Z,11.85
2018-03-27T18:54:53.737Z,10.85
2018-03-27T18:57:20.208Z,10.68
2018-03-27T18:59:46.706Z,11.20
2018-03-27T19:02:13.176Z,10.70
2018-03-27T19:04:39.694Z,11.30
2018-03-27T19:07:07.449Z,10.45
2018-03-27T19:09:34.651Z,10.10
2018-03-27T19:12:01.167Z,11.85
2018-03-27T19:14:27.744Z,12.52
2018-03-27T19:16:54.209Z,12.07
2018-03-27T19:19:21.466Z,11.50
2018-03-27T19:21:48.756Z,11.68
2018-03-27T19:24:15.266Z,12.00
2018-03-27T19:26:41.760Z,11.80
2018-03-27T19:29:08.237Z,14.15
2018-03-27T19:31:34.691Z,12.52
2018-03-27T19:34:01.211Z,12.43
2018-03-27T19:36:27.718Z,11.32
2018-03-27T19:38:54.177Z,11.52
2018-03-27T19:41:20.712Z,16.20
2018-03-27T19:43:47.277Z,12.02
2018-03-27T19:46:13.725Z,12.85
2018-03-27T19:48:41.108Z,12.93
2018-03-27T19:51:07.608Z,12.82
2018-03-27T19:53:34.088Z,11.73
2018-03-27T19:56:00.524Z,11.30
2018-03-27T19:58:26.953Z,11.82
2018-03-27T20:00:53.458Z,12.05
2018-03-27T20:03:20.731Z,12.40
2018-03-27T20:05:47.267Z,11.50
2018-03-27T20:08:13.886Z,11.25
2018-03-27T20:10:40.450Z,11.10
2018-03-27T20:13:06.981Z,14.02
2018-03-27T20:15:41.704Z,10.05
2018-03-27T20:18:00.085Z,11.75
2018-03-27T20:20:26.580Z,11.15
2018-03-27T20:22:53.036Z,12.00
2018-03-27T20:25:19.493Z,11.55
2018-03-27T20:27:46.732Z,12.60
2018-03-27T20:30:13.223Z,12.27
2018-03-27T20:32:39.710Z,11.68
2018-03-27T20:35:06.238Z,11.25
2018-03-27T20:37:32.754Z,11.93
2018-03-27T20:39:59.165Z,11.45
2018-03-27T20:42:25.641Z,11.10
2018-03-27T20:44:52.149Z,11.90
2018-03-27T20:47:18.976Z,11.68
2018-03-27T20:49:45.509Z,11.02
2018-03-27T20:52:12.065Z,10.93
2018-03-27T20:54:38.589Z,10.85
2018-03-27T20:57:05.063Z,12.88
2018-03-27T20:59:32.272Z,12.70
2018-03-27T21:01:58.802Z,11.18
2018-03-27T21:04:25.338Z,12.82
2018-03-27T21:06:51.785Z,13.27
2018-03-27T21:09:18.257Z,12.20
2018-03-27T21:11:45.465Z,13.70
2018-03-27T21:14:11.961Z,12.77
2018-03-27T21:16:38.503Z,13.18
2018-03-27T21:19:05.038Z,11.40
2018-03-27T21:21:31.539Z,12.45
2018-03-27T21:23:58.022Z,12.50
2018-03-27T21:26:24.480Z,12.30
2018-03-27T21:28:51.040Z,11.10
2018-03-27T21:31:18.369Z,12.25
2018-03-27T21:33:44.862Z,12.20
2018-03-27T21:36:11.438Z,11.02
2018-03-27T21:38:38.065Z,10.23
2018-03-27T21:41:05.330Z,11.43
2018-03-27T21:43:31.912Z,10.98
2018-03-27T21:45:58.531Z,12.07
2018-03-27T21:48:25.001Z,12.50
2018-03-27T21:50:51.516Z,10.77
2018-03-27T21:53:18.405Z,11.75
2018-03-27T21:55:44.942Z,12.82
2018-03-27T21:58:11.584Z,10.45
2018-03-27T22:00:38.073Z,11.25
2018-03-27T22:03:04.615Z,11.95
2018-03-27T22:05:31.130Z,12.90
2018-03-27T22:07:58.643Z,12.00
2018-03-27T22:10:25.884Z,11.05
2018-03-27T22:12:52.349Z,10.93
2018-03-27T22:15:18.884Z,10.60
2018-03-27T22:17:45.368Z,10.93
2018-03-27T22:20:11.991Z,9.43
2018-03-27T22:22:38.590Z,9.35
2018-03-27T22:25:05.407Z,8.77
2018-03-27T22:27:31.859Z,10.52
2018-03-27T22:29:58.488Z,8.27
2018-03-27T22:32:25.090Z,8.40
2018-03-27T22:34:51.552Z,9.52
2018-03-27T22:37:18.224Z,9.43
2018-03-27T22:39:44.717Z,9.80
2018-03-27T22:42:12.144Z,9.27
2018-03-27T22:44:38.613Z,8.95
2018-03-27T22:47:05.158Z,9.95
2018-03-27T22:49:31.613Z,8.07
2018-03-27T22:51:58.131Z,9.50
2018-03-27T22:54:25.519Z,9.25
2018-03-27T22:56:52.791Z,7.22
2018-03-27T22:59:20.083Z,8.65
2018-03-27T23:01:46.557Z,8.45
2018-03-27T23:04:13.780Z,8.80
2018-03-27T23:06:40.300Z,8.90
2018-03-27T23:09:06.869Z,8.88
2018-03-27T23:11:33.410Z,8.18
2018-03-27T23:13:59.900Z,9.23
2018-03-27T23:16:26.422Z,8.15
2018-03-27T23:18:52.919Z,7.53
2018-03-27T23:21:19.443Z,7.12
2018-03-27T23:23:45.857Z,8.18
2018-03-27T23:26:12.280Z,7.50
2018-03-27T23:28:38.723Z,7.43
2018-03-27T23:31:05.178Z,7.90
2018-03-27T23:33:31.681Z,7.18
2018-03-27T23:35:58.116Z,8.07
2018-03-27T23:38:24.551Z,7.78
2018-03-27T23:40:51.056Z,8.48
2018-03-27T23:43:18.260Z,7.93
2018-03-27T23:45:44.702Z,7.20
2018-03-27T23:48:11.097Z,6.47
2018-03-27T23:50:37.490Z,7.43
2018-03-27T23:53:04.682Z,7.65
2018-03-27T23:55:31.169Z,6.93
2018-03-27T23:57:57.596Z,6.97
